createdAt,value
2023-05-17T00:01:17.650Z,73.96
2023-05-17T00:03:50.988Z,74.36
2023-05-17T00:06:24.379Z,74.66
2023-05-17T00:08:57.219Z,74.83
2023-05-17T00:11:30.210Z,74.99
2023-05-17T00:14:03.759Z,75.24
2023-05-17T00:16:37.360Z,75.32
2023-05-17T00:19:10.479Z,75.27
2023-05-17T00:21:43.508Z,75.42
2023-05-17T00:24:16.462Z,75.51
2023-05-17T00:26:49.462Z,75.66
2023-05-17T00:29:22.533Z,75.67
2023-05-17T00:31:55.424Z,76.03
2023-05-17T00:34:28.448Z,76.15
2023-05-17T00:37:01.269Z,75.88
2023-05-17T00:39:34.317Z,75.91
2023-05-17T00:42:07.737Z,75.93
2023-05-17T00:44:41.145Z,75.82
2023-05-17T00:47:14.190Z,75.81
2023-05-17T00:49:47.115Z,76.03
2023-05-17T00:52:20.090Z,76.14
2023-05-17T00:54:54.065Z,76.31
2023-05-17T00:57:28.978Z,76.37
2023-05-17T01:00:02.326Z,76.45
2023-05-17T01:02:35.727Z,76.61
2023-05-17T01:05:09.504Z,76.75
2023-05-17T01:07:42.987Z,76.87
2023-05-17T01:10:16.171Z,76.97
2023-05-17T01:13:11.441Z,77.21
2023-05-17T01:15:48.184Z,77.53
2023-05-17T01:18:47.095Z,77.85
2023-05-17T01:22:01.863Z,77.81
2023-05-17T01:25:00.422Z,78.08
2023-05-17T01:27:34.308Z,77.68
2023-05-17T01:30:08.818Z,78.31
2023-05-17T01:32:43.622Z,78.76
2023-05-17T01:35:17.621Z,78.58
2023-05-17T01:37:51.202Z,78.17
2023-05-17T01:40:24.386Z,78.04
2023-05-17T01:43:12.369Z,78.29
2023-05-17T01:46:06.608Z,78.56
2023-05-17T01:48:44.205Z,78.32
2023-05-17T01:51:20.866Z,78.32
2023-05-17T01:54:00.999Z,77.91
2023-05-17T01:56:36.356Z,78.08
2023-05-17T01:59:09.857Z,78.21
2023-05-17T02:01:44.374Z,78.44
2023-05-17T02:04:17.419Z,78.73
2023-05-17T02:06:50.416Z,79.00
2023-05-17T02:09:23.640Z,79.21
2023-05-17T02:11:56.660Z,79.44
2023-05-17T02:14:30.366Z,79.37
2023-05-17T02:17:05.254Z,79.84
2023-05-17T02:19:38.223Z,79.84
2023-05-17T02:22:12.289Z,79.69
2023-05-17T02:24:45.016Z,79.82
2023-05-17T02:27:18.092Z,79.88
2023-05-17T02:29:50.890Z,80.13
2023-05-17T02:32:24.073Z,80.05
2023-05-17T02:34:57.854Z,79.67
2023-05-17T02:37:30.692Z,79.46
2023-05-17T02:40:04.505Z,79.11
2023-05-17T02:42:39.298Z,78.96
2023-05-17T02:45:12.781Z,78.84
2023-05-17T02:47:45.856Z,78.87
2023-05-17T02:50:19.041Z,78.66
2023-05-17T02:52:51.981Z,78.57
2023-05-17T02:55:25.048Z,78.22
2023-05-17T02:57:58.176Z,77.85
2023-05-17T03:00:31.354Z,77.66
2023-05-17T03:03:04.520Z,77.27
2023-05-17T03:05:37.573Z,77.27
2023-05-17T03:08:10.872Z,76.97
2023-05-17T03:10:43.679Z,76.99
2023-05-17T03:13:17.519Z,76.51
2023-05-17T03:15:50.887Z,76.20
2023-05-17T03:18:24.259Z,75.80
2023-05-17T03:20:59.883Z,75.29
2023-05-17T03:23:33.613Z,74.75
2023-05-17T03:26:08.002Z,74.18
2023-05-17T03:28:43.044Z,74.03
2023-05-17T03:31:15.886Z,73.73
2023-05-17T03:33:49.007Z,74.07
2023-05-17T03:36:22.734Z,74.09
2023-05-17T03:38:55.928Z,73.65
2023-05-17T03:41:29.178Z,73.03
2023-05-17T03:44:02.175Z,72.47
2023-05-17T03:46:36.101Z,71.44
2023-05-17T03:49:09.920Z,70.48
2023-05-17T03:51:43.790Z,69.72
2023-05-17T03:54:16.776Z,69.18
2023-05-17T03:56:50.527Z,68.49
2023-05-17T03:59:23.568Z,67.93
2023-05-17T04:01:56.503Z,67.19
2023-05-17T04:04:29.415Z,67.06
2023-05-17T04:07:02.506Z,65.94
2023-05-17T04:09:35.393Z,65.31
2023-05-17T04:12:09.455Z,64.55
2023-05-17T04:14:41.786Z,64.34
2023-05-17T04:17:16.784Z,64.73
2023-05-17T04:19:51.109Z,65.09
2023-05-17T04:22:25.889Z,65.26
2023-05-17T04:24:58.704Z,65.31
2023-05-17T04:27:32.351Z,64.89
2023-05-17T04:30:05.780Z,64.49
2023-05-17T04:32:38.859Z,64.73
2023-05-17T04:35:11.959Z,64.26
2023-05-17T04:37:46.979Z,64.56
2023-05-17T04:40:25.040Z,64.97
2023-05-17T04:42:58.166Z,64.28
2023-05-17T04:45:33.680Z,64.02
2023-05-17T04:48:07.326Z,63.50
2023-05-17T04:50:40.534Z,62.32
2023-05-17T04:53:13.722Z,62.09
2023-05-17T04:55:48.955Z,62.63
2023-05-17T04:58:22.176Z,62.47
2023-05-17T05:00:56.746Z,63.50
2023-05-17T05:03:29.871Z,63.47
2023-05-17T05:06:04.612Z,63.58
2023-05-17T05:08:38.015Z,63.37
2023-05-17T05:11:12.905Z,63.73
2023-05-17T05:13:46.596Z,63.14
2023-05-17T05:16:19.810Z,62.83
2023-05-17T05:18:54.242Z,63.05
2023-05-17T05:21:27.650Z,62.78
2023-05-17T05:24:00.948Z,62.88
2023-05-17T05:26:34.171Z,63.29
2023-05-17T05:29:08.041Z,63.67
2023-05-17T05:31:41.476Z,63.12
2023-05-17T05:34:14.662Z,62.31
2023-05-17T05:36:47.732Z,61.52
2023-05-17T05:39:20.827Z,60.26
2023-05-17T05:41:53.761Z,60.25
2023-05-17T05:44:26.842Z,59.01
2023-05-17T05:47:00.017Z,58.21
2023-05-17T05:49:33.071Z,57.39
2023-05-17T05:52:06.289Z,56.98
2023-05-17T05:54:39.554Z,57.17
2023-05-17T05:57:12.844Z,57.02
2023-05-17T05:59:46.027Z,56.82
2023-05-17T06:02:20.086Z,56.22
2023-05-17T06:04:52.931Z,55.57
2023-05-17T06:07:25.825Z,55.48
2023-05-17T06:09:58.907Z,54.75
2023-05-17T06:12:32.901Z,54.44
2023-05-17T06:15:06.577Z,53.97
2023-05-17T06:17:39.961Z,52.60
2023-05-17T06:20:13.525Z,52.68
2023-05-17T06:22:46.660Z,52.99
2023-05-17T06:25:19.690Z,51.72
2023-05-17T06:27:52.652Z,50.90
2023-05-17T06:30:27.652Z,50.81
2023-05-17T06:33:01.787Z,51.00
2023-05-17T06:35:47.532Z,50.89
2023-05-17T06:38:09.291Z,50.64
2023-05-17T06:40:42.380Z,51.21
2023-05-17T06:43:15.349Z,51.27
2023-05-17T06:45:48.211Z,51.09
2023-05-17T06:48:21.881Z,51.86
2023-05-17T06:50:54.953Z,51.86
2023-05-17T06:53:28.091Z,51.56
2023-05-17T06:56:01.118Z,51.79
2023-05-17T06:58:35.922Z,51.78
2023-05-17T07:01:09.158Z,51.97
2023-05-17T07:03:44.643Z,51.94
2023-05-17T07:06:17.776Z,51.65
2023-05-17T07:08:51.119Z,51.35
2023-05-17T07:11:24.007Z,51.42
2023-05-17T07:13:56.903Z,51.28
2023-05-17T07:16:29.992Z,51.40
2023-05-17T07:19:02.976Z,50.64
2023-05-17T07:21:37.077Z,51.20
2023-05-17T07:24:10.046Z,50.29
2023-05-17T07:26:44.175Z,50.79
2023-05-17T07:29:17.109Z,50.39
2023-05-17T07:31:51.866Z,49.47
2023-05-17T07:34:24.495Z,50.41
2023-05-17T07:36:59.710Z,49.73
2023-05-17T07:39:32.594Z,49.50
2023-05-17T07:42:05.919Z,50.04
2023-05-17T07:44:38.789Z,49.50
2023-05-17T07:47:11.569Z,49.47
2023-05-17T07:49:44.615Z,49.65
2023-05-17T07:52:17.430Z,48.43
2023-05-17T07:54:50.899Z,48.13
2023-05-17T07:57:24.230Z,49.02
2023-05-17T07:59:56.924Z,49.39
2023-05-17T08:02:29.966Z,49.16
2023-05-17T08:05:02.954Z,49.07
2023-05-17T08:07:36.308Z,49.12
2023-05-17T08:10:09.989Z,49.37
2023-05-17T08:12:43.194Z,49.20
2023-05-17T08:15:16.072Z,49.45
2023-05-17T08:17:49.296Z,49.30
2023-05-17T08:20:23.009Z,48.73
2023-05-17T08:22:56.384Z,48.09
2023-05-17T08:25:29.394Z,48.00
2023-05-17T08:28:03.104Z,48.55
2023-05-17T08:30:36.481Z,48.71
2023-05-17T08:33:11.814Z,48.65
2023-05-17T08:35:44.644Z,48.99
2023-05-17T08:38:20.018Z,48.22
2023-05-17T08:41:00.162Z,49.29
2023-05-17T08:43:33.768Z,49.51
2023-05-17T08:46:06.968Z,49.28
2023-05-17T08:48:42.375Z,49.10
2023-05-17T08:51:15.400Z,48.23
2023-05-17T08:53:50.954Z,48.96
2023-05-17T08:56:25.624Z,49.66
2023-05-17T08:58:59.200Z,48.35
2023-05-17T09:01:33.276Z,47.61
2023-05-17T09:04:07.317Z,48.43
2023-05-17T09:06:40.166Z,48.47
2023-05-17T09:09:13.342Z,48.15
2023-05-17T09:11:47.338Z,47.98
2023-05-17T09:14:20.197Z,47.43
2023-05-17T09:16:58.654Z,47.64
2023-05-17T09:19:33.000Z,47.83
2023-05-17T09:22:05.170Z,47.48
2023-05-17T09:24:37.951Z,47.33
2023-05-17T09:27:10.904Z,47.80
2023-05-17T09:29:45.272Z,48.14
2023-05-17T09:32:21.917Z,48.15
2023-05-17T09:34:56.316Z,46.98
2023-05-17T09:37:29.115Z,46.95
2023-05-17T09:40:04.446Z,46.59
2023-05-17T09:42:39.440Z,46.35
2023-05-17T09:45:14.056Z,47.17
2023-05-17T09:47:48.423Z,46.32
2023-05-17T09:50:23.258Z,45.56
2023-05-17T09:52:55.783Z,45.73
2023-05-17T09:55:30.011Z,46.12
2023-05-17T09:58:06.546Z,45.01
2023-05-17T10:00:39.847Z,45.10
2023-05-17T10:03:14.185Z,44.08
2023-05-17T10:05:48.229Z,44.08
2023-05-17T10:08:26.262Z,44.28
2023-05-17T10:11:11.840Z,44.53
2023-05-17T10:13:51.945Z,43.75
2023-05-17T10:16:25.281Z,44.15
2023-05-17T10:18:58.199Z,44.49
2023-05-17T10:21:34.696Z,43.91
2023-05-17T10:24:08.741Z,44.18
2023-05-17T10:26:40.965Z,44.22
2023-05-17T10:29:14.087Z,43.41
2023-05-17T10:31:47.827Z,43.43
2023-05-17T10:34:22.056Z,43.22
2023-05-17T10:36:55.790Z,42.13
2023-05-17T10:39:29.286Z,42.42
2023-05-17T10:42:14.315Z,43.28
2023-05-17T10:44:39.262Z,43.78
2023-05-17T10:47:13.002Z,43.82
2023-05-17T10:49:48.675Z,43.04
2023-05-17T10:52:24.970Z,43.22
2023-05-17T10:54:58.726Z,42.92
2023-05-17T11:00:13.278Z,43.12
2023-05-17T11:02:45.653Z,42.00
2023-05-17T11:05:28.793Z,42.39
2023-05-17T11:08:20.928Z,40.51
2023-05-17T11:11:14.400Z,39.73
2023-05-17T11:13:53.905Z,39.56
2023-05-17T11:16:39.818Z,40.05
2023-05-17T11:19:13.940Z,40.70
2023-05-17T11:21:50.373Z,40.69
2023-05-17T11:24:28.950Z,40.74
2023-05-17T11:27:02.506Z,40.72
2023-05-17T11:29:35.808Z,39.86
2023-05-17T11:32:11.601Z,39.47
2023-05-17T11:34:44.485Z,39.10
2023-05-17T11:37:21.160Z,39.61
2023-05-17T11:40:10.481Z,39.75
2023-05-17T11:42:45.511Z,40.52
2023-05-17T11:45:18.518Z,40.04
2023-05-17T11:47:52.997Z,39.39
2023-05-17T11:50:26.193Z,39.23
2023-05-17T11:53:00.624Z,39.48
2023-05-17T11:55:34.812Z,39.91
2023-05-17T11:58:11.122Z,39.96
2023-05-17T12:00:45.496Z,39.75
2023-05-17T12:03:25.051Z,39.34
2023-05-17T12:06:16.414Z,39.34
2023-05-17T12:08:50.253Z,39.86
2023-05-17T12:11:24.131Z,40.05
2023-05-17T12:13:57.325Z,40.51
2023-05-17T12:16:32.812Z,40.94
2023-05-17T12:19:06.050Z,41.14
2023-05-17T12:21:41.280Z,39.74
2023-05-17T12:24:14.428Z,39.62
2023-05-17T12:26:50.427Z,39.54
2023-05-17T12:29:25.183Z,39.42
2023-05-17T12:31:58.445Z,40.09
2023-05-17T12:34:32.367Z,40.27
2023-05-17T12:37:07.332Z,39.93
2023-05-17T12:39:41.144Z,39.74
2023-05-17T12:42:14.288Z,39.02
2023-05-17T12:44:47.707Z,38.96
2023-05-17T12:47:20.536Z,37.68
2023-05-17T12:49:59.341Z,37.05
2023-05-17T12:52:38.172Z,37.25
2023-05-17T12:55:14.832Z,37.47
2023-05-17T12:57:57.685Z,37.71
2023-05-17T13:00:31.158Z,37.94
2023-05-17T13:03:06.058Z,37.94
2023-05-17T13:05:41.638Z,37.40
2023-05-17T13:08:24.825Z,37.39
2023-05-17T13:11:12.104Z,37.82
2023-05-17T13:13:44.875Z,37.60
2023-05-17T13:16:17.793Z,37.94
2023-05-17T13:18:53.521Z,37.69
2023-05-17T13:21:27.184Z,37.35
2023-05-17T13:23:59.906Z,37.88
2023-05-17T13:26:33.164Z,36.90
2023-05-17T13:29:06.522Z,36.10
2023-05-17T13:31:39.491Z,36.10
2023-05-17T13:34:12.465Z,35.67
2023-05-17T13:36:45.697Z,35.19
2023-05-17T13:39:19.890Z,34.66
2023-05-17T13:41:53.250Z,34.78
2023-05-17T13:44:26.209Z,34.86
2023-05-17T13:46:59.056Z,34.75
2023-05-17T13:49:32.251Z,34.84
2023-05-17T13:52:06.947Z,34.54
2023-05-17T13:54:40.653Z,34.42
2023-05-17T13:57:13.872Z,34.63
2023-05-17T13:59:47.266Z,34.51
2023-05-17T14:02:20.407Z,35.11
2023-05-17T14:04:53.248Z,34.85
2023-05-17T14:07:26.652Z,34.91
2023-05-17T14:09:59.661Z,34.38
2023-05-17T14:12:32.697Z,34.19
2023-05-17T14:15:06.470Z,34.16
2023-05-17T14:17:39.548Z,34.11
2023-05-17T14:20:14.310Z,34.45
2023-05-17T14:22:47.411Z,34.48
2023-05-17T14:25:20.563Z,34.27
2023-05-17T14:27:54.618Z,34.88
2023-05-17T14:30:26.785Z,35.22
2023-05-17T14:32:59.582Z,34.76
2023-05-17T14:35:32.687Z,34.92
2023-05-17T14:38:05.865Z,34.23
2023-05-17T14:40:39.362Z,33.75
2023-05-17T14:43:12.334Z,33.42
2023-05-17T14:45:45.519Z,33.52
2023-05-17T14:48:18.581Z,33.61
2023-05-17T14:50:53.166Z,34.07
2023-05-17T14:53:29.639Z,34.16
2023-05-17T14:56:02.560Z,34.13
2023-05-17T14:58:36.048Z,34.18
2023-05-17T15:01:09.531Z,34.01
2023-05-17T15:03:42.530Z,34.03
2023-05-17T15:06:15.591Z,34.04
2023-05-17T15:08:48.886Z,33.86
2023-05-17T15:11:22.127Z,34.19
2023-05-17T15:13:55.246Z,33.95
2023-05-17T15:16:28.007Z,33.57
2023-05-17T15:19:02.067Z,33.25
2023-05-17T15:21:35.221Z,33.12
2023-05-17T15:24:08.853Z,33.60
2023-05-17T15:26:43.256Z,33.80
2023-05-17T15:29:16.366Z,34.12
2023-05-17T15:31:49.378Z,34.00
2023-05-17T15:34:24.645Z,34.36
2023-05-17T15:36:58.686Z,34.59
2023-05-17T15:39:31.722Z,34.21
2023-05-17T15:42:04.967Z,34.22
2023-05-17T15:44:37.902Z,34.24
2023-05-17T15:47:10.946Z,34.44
2023-05-17T15:49:43.991Z,34.48
2023-05-17T15:52:16.900Z,34.36
2023-05-17T15:54:50.892Z,34.27
2023-05-17T15:57:23.814Z,34.20
2023-05-17T15:59:57.201Z,34.30
2023-05-17T16:02:30.518Z,34.50
2023-05-17T16:05:04.108Z,34.93
2023-05-17T16:07:37.590Z,35.29
2023-05-17T16:10:12.037Z,35.53
2023-05-17T16:12:45.125Z,35.56
2023-05-17T16:15:18.323Z,35.79
2023-05-17T16:17:53.819Z,35.85
2023-05-17T16:20:27.210Z,36.19
2023-05-17T16:23:00.280Z,36.54
2023-05-17T16:25:33.442Z,36.88
2023-05-17T16:28:06.364Z,37.58
2023-05-17T16:30:39.858Z,38.29
2023-05-17T16:33:14.722Z,38.77
2023-05-17T16:35:52.315Z,39.29
2023-05-17T16:38:25.821Z,39.84
2023-05-17T16:41:00.584Z,40.43
2023-05-17T16:43:33.713Z,40.98
2023-05-17T16:46:06.701Z,41.61
2023-05-17T16:48:39.824Z,42.06
2023-05-17T16:51:12.687Z,42.64
2023-05-17T16:53:45.698Z,43.27
2023-05-17T16:56:18.837Z,43.65
2023-05-17T16:58:53.050Z,44.23
2023-05-17T17:01:26.491Z,44.61
2023-05-17T17:03:59.808Z,45.01
2023-05-17T17:06:34.281Z,45.27
2023-05-17T17:09:08.480Z,45.61
2023-05-17T17:11:41.841Z,46.33
2023-05-17T17:14:15.262Z,46.91
2023-05-17T17:16:48.301Z,47.36
2023-05-17T17:19:22.140Z,47.76
2023-05-17T17:21:55.153Z,48.45
2023-05-17T17:24:28.444Z,48.84
2023-05-17T17:27:01.218Z,49.17
2023-05-17T17:29:34.524Z,49.50
2023-05-17T17:32:09.129Z,49.49
2023-05-17T17:34:42.114Z,49.85
2023-05-17T17:37:15.236Z,50.35
2023-05-17T17:39:48.091Z,50.71
2023-05-17T17:42:21.900Z,50.98
2023-05-17T17:44:55.675Z,51.66
2023-05-17T17:47:28.576Z,52.07
2023-05-17T17:50:01.314Z,52.17
2023-05-17T17:52:34.662Z,52.13
2023-05-17T17:55:10.931Z,52.11
2023-05-17T17:57:43.888Z,52.39
2023-05-17T18:00:17.075Z,52.46
2023-05-17T18:02:50.395Z,52.36
2023-05-17T18:05:25.308Z,52.51
2023-05-17T18:07:58.456Z,53.23
2023-05-17T18:10:31.885Z,54.00
2023-05-17T18:13:05.528Z,54.78
2023-05-17T18:15:38.712Z,55.58
2023-05-17T18:18:12.143Z,56.28
2023-05-17T18:20:45.194Z,57.17
2023-05-17T18:23:18.479Z,57.91
2023-05-17T18:25:52.131Z,58.32
2023-05-17T18:28:38.024Z,58.12
2023-05-17T18:30:59.519Z,57.94
2023-05-17T18:33:34.374Z,57.87
2023-05-17T18:36:07.669Z,57.83
2023-05-17T18:38:41.585Z,58.51
2023-05-17T18:41:14.351Z,58.61
2023-05-17T18:43:47.123Z,58.22
2023-05-17T18:46:20.153Z,58.63
2023-05-17T18:48:52.981Z,58.94
2023-05-17T18:51:26.082Z,59.17
2023-05-17T18:53:58.911Z,59.46
2023-05-17T18:56:33.058Z,59.75
2023-05-17T18:59:05.525Z,60.09
2023-05-17T19:01:38.595Z,60.40
2023-05-17T19:04:11.554Z,60.42
2023-05-17T19:06:44.885Z,60.55
2023-05-17T19:09:17.857Z,60.80
2023-05-17T19:11:50.719Z,61.21
2023-05-17T19:14:24.167Z,61.52
2023-05-17T19:16:57.213Z,61.57
2023-05-17T19:19:31.543Z,61.77
2023-05-17T19:22:05.739Z,61.92
2023-05-17T19:24:38.453Z,62.00
2023-05-17T19:27:13.840Z,62.20
2023-05-17T19:29:49.972Z,62.51
2023-05-17T19:32:23.121Z,62.81
2023-05-17T19:34:56.036Z,63.04
2023-05-17T19:37:29.626Z,63.00
2023-05-17T19:40:02.422Z,63.19
2023-05-17T19:42:35.696Z,63.52
2023-05-17T19:45:11.436Z,63.55
2023-05-17T19:47:45.192Z,63.99
2023-05-17T19:50:18.034Z,64.17
2023-05-17T19:52:51.086Z,64.58
2023-05-17T19:55:25.264Z,65.14
2023-05-17T19:57:58.947Z,65.57
2023-05-17T20:00:33.937Z,65.56
2023-05-17T20:03:07.731Z,65.30
2023-05-17T20:05:41.063Z,65.09
2023-05-17T20:08:13.870Z,65.08
2023-05-17T20:10:46.733Z,65.25
2023-05-17T20:13:21.228Z,65.41
2023-05-17T20:15:54.564Z,65.88
2023-05-17T20:18:30.806Z,66.03
2023-05-17T20:21:03.652Z,66.05
2023-05-17T20:23:36.752Z,66.28
2023-05-17T20:26:11.182Z,66.88
2023-05-17T20:28:45.356Z,67.31
2023-05-17T20:31:18.427Z,67.30
2023-05-17T20:33:52.064Z,67.59
2023-05-17T20:36:26.118Z,67.42
2023-05-17T20:38:59.117Z,67.67
2023-05-17T20:41:32.111Z,67.67
2023-05-17T20:44:05.370Z,67.76
2023-05-17T20:46:38.904Z,67.58
2023-05-17T20:49:12.177Z,67.42
2023-05-17T20:51:45.165Z,67.51
2023-05-17T20:54:17.924Z,67.39
2023-05-17T20:56:50.782Z,67.69
2023-05-17T20:59:24.040Z,67.90
2023-05-17T21:01:56.878Z,67.87
2023-05-17T21:04:29.746Z,68.14
2023-05-17T21:07:02.826Z,68.55
2023-05-17T21:09:36.461Z,68.40
2023-05-17T21:12:09.551Z,68.32
2023-05-17T21:14:42.540Z,68.28
2023-05-17T21:17:15.986Z,68.36
2023-05-17T21:19:48.791Z,68.35
2023-05-17T21:22:21.674Z,68.37
2023-05-17T21:24:54.439Z,68.79
2023-05-17T21:27:27.762Z,68.89
2023-05-17T21:30:01.352Z,68.90
2023-05-17T21:32:34.341Z,69.15
2023-05-17T21:35:07.734Z,69.17
2023-05-17T21:37:42.181Z,69.37
2023-05-17T21:40:14.803Z,69.48
2023-05-17T21:42:48.208Z,69.57
2023-05-17T21:45:22.143Z,69.70
2023-05-17T21:47:54.951Z,69.76
2023-05-17T21:50:28.394Z,69.84
2023-05-17T21:53:01.541Z,69.97
2023-05-17T21:55:40.897Z,70.11
2023-05-17T21:58:07.816Z,70.27
2023-05-17T22:00:40.924Z,70.36
2023-05-17T22:03:13.962Z,70.49
2023-05-17T22:05:46.930Z,70.65
2023-05-17T22:08:19.815Z,70.69
2023-05-17T22:10:54.161Z,70.74
2023-05-17T22:13:29.351Z,71.04
2023-05-17T22:16:02.237Z,70.98
2023-05-17T22:18:36.023Z,70.94
2023-05-17T22:21:09.077Z,70.97
2023-05-17T22:23:42.665Z,70.92
2023-05-17T22:26:15.414Z,70.90
2023-05-17T22:28:48.485Z,70.96
2023-05-17T22:31:21.599Z,71.02
2023-05-17T22:33:54.435Z,71.22
2023-05-17T22:36:27.253Z,71.48
2023-05-17T22:39:01.150Z,72.30
2023-05-17T22:41:34.200Z,72.72
2023-05-17T22:44:07.204Z,73.19
2023-05-17T22:46:42.465Z,72.60
2023-05-17T22:49:17.359Z,72.56
2023-05-17T22:51:50.051Z,72.58
2023-05-17T22:54:22.876Z,72.70
2023-05-17T22:56:55.630Z,72.86
2023-05-17T22:59:28.881Z,73.14
2023-05-17T23:02:03.398Z,73.51
2023-05-17T23:04:38.152Z,73.73
2023-05-17T23:07:10.892Z,74.46
2023-05-17T23:09:43.875Z,75.12
2023-05-17T23:12:17.598Z,75.85
2023-05-17T23:14:50.340Z,76.03
2023-05-17T23:17:23.040Z,76.48
2023-05-17T23:19:56.079Z,75.90
2023-05-17T23:22:31.908Z,75.61
2023-05-17T23:25:06.356Z,75.47
2023-05-17T23:27:39.232Z,76.06
2023-05-17T23:30:12.743Z,76.18
2023-05-17T23:32:47.038Z,76.55
2023-05-17T23:35:19.655Z,76.73
2023-05-17T23:37:52.488Z,76.36
2023-05-17T23:40:26.278Z,76.14
2023-05-17T23:42:59.047Z,75.96
2023-05-17T23:45:32.424Z,75.77
2023-05-17T23:48:05.560Z,75.76
2023-05-17T23:50:39.502Z,75.71
2023-05-17T23:53:12.250Z,75.70
2023-05-17T23:55:46.433Z,76.28
2023-05-17T23:58:19.181Z,76.37
